Time;durP1;ratioP1;P1;durP2;ratioP2;P2;SDS_P1;SDS_P2;PMS_P1;PMS_P2;Temp;Humidity;BMP_temperature;BMP_pressure;BME280_temperature;BME280_humidity;BME280_pressure;Samples;Min_cycle;Max_cycle;Signal;HPM_P1;HPM_P2
2022/04/10 00:01:01;;;;;;;28.60;3.67;;;5.40;99.90;;;3.83;85.17;100287.09;4934621;28;20035;-79
2022/04/10 00:03:28;;;;;;;27.15;3.13;;;5.40;99.90;;;3.84;85.78;100288.78;4950944;28;20050;-78
2022/04/10 00:05:53;;;;;;;35.80;3.28;;;5.30;99.90;;;3.87;85.74;100291.31;4954978;28;20045;-79
2022/04/10 00:08:20;;;;;;;26.23;3.53;;;5.40;99.90;;;3.87;85.29;100296.53;4945856;28;20463;-78
2022/04/10 00:10:46;;;;;;;26.75;3.28;;;5.40;99.90;;;3.85;85.38;100296.56;4944458;28;20121;-76
2022/04/10 00:13:13;;;;;;;28.13;3.55;;;5.40;99.90;;;3.86;85.64;100287.84;4927072;28;20036;-79
2022/04/10 00:15:39;;;;;;;37.13;3.38;;;5.40;99.90;;;3.85;85.61;100296.56;4928124;28;20106;-78
2022/04/10 00:18:06;;;;;;;23.98;3.75;;;5.40;99.90;;;3.85;85.72;100293.09;4944884;28;20035;-77
2022/04/10 00:20:32;;;;;;;27.13;3.78;;;5.40;99.90;;;3.83;85.63;100298.34;4926585;28;20126;-79
2022/04/10 00:22:59;;;;;;;31.27;4.15;;;5.40;99.90;;;3.85;85.97;100298.31;4929805;28;20038;-78
2022/04/10 00:25:25;;;;;;;34.13;4.85;;;5.40;99.90;;;3.83;86.07;100300.09;4919418;28;20069;-77
2022/04/10 00:27:51;;;;;;;27.20;3.95;;;5.40;99.90;;;3.81;86.16;100301.88;4945434;28;20030;-80
2022/04/10 00:30:18;;;;;;;27.98;3.65;;;5.40;99.90;;;3.82;86.23;100304.47;4921392;28;20030;-79
2022/04/10 00:32:44;;;;;;;25.02;2.97;;;5.30;99.90;;;3.81;86.36;100310.56;4927720;28;20046;-79
2022/04/10 00:35:12;;;;;;;26.55;4.40;;;5.30;99.90;;;3.82;86.69;100300.97;4930202;28;20036;-77
2022/04/10 00:37:39;;;;;;;34.17;4.75;;;5.30;99.90;;;3.77;86.63;100300.25;4957065;28;20496;-78
2022/04/10 00:40:08;;;;;;;33.22;4.28;;;5.30;99.90;;;3.79;86.85;100311.50;4943676;28;20077;-79
2022/04/10 00:42:46;;;;;;;33.30;3.83;;;5.30;99.90;;;3.78;87.00;100305.44;4911292;28;21334;-79
2022/04/10 00:45:12;;;;;;;30.42;3.72;;;5.30;99.90;;;3.76;87.06;100308.94;4928318;28;20043;-79
2022/04/10 00:47:38;;;;;;;29.98;4.28;;;5.30;99.90;;;3.75;87.11;100309.84;4926854;28;20069;-78
2022/04/10 00:50:08;;;;;;;25.92;3.58;;;5.30;99.90;;;3.71;86.97;100314.28;4928188;28;20733;-80
2022/04/10 00:52:35;;;;;;;32.42;4.15;;;5.30;99.90;;;3.74;86.99;100309.00;4899730;28;20023;-77
2022/04/10 00:55:02;;;;;;;36.80;4.10;;;5.30;99.90;;;3.69;87.26;100305.63;4911452;28;20031;-78
2022/04/10 00:57:28;;;;;;;22.67;3.17;;;5.30;99.90;;;3.66;87.15;100310.94;4910455;28;20604;-79
2022/04/10 00:59:54;;;;;;;25.33;3.17;;;5.20;99.90;;;3.65;87.05;100310.09;4946682;28;20027;-79
2022/04/10 01:02:20;;;;;;;29.23;3.35;;;5.20;99.90;;;3.61;87.76;100299.78;4925702;28;20030;-79
2022/04/10 01:04:46;;;;;;;29.67;3.47;;;5.20;99.90;;;3.62;87.37;100309.31;4929425;28;21465;-79
2022/04/10 01:07:15;;;;;;;36.95;4.47;;;5.20;99.90;;;3.58;87.74;100308.50;4943936;28;20122;-77
2022/04/10 01:09:41;;;;;;;30.35;3.63;;;5.20;99.90;;;3.60;87.75;100309.31;4929288;28;20019;-79
2022/04/10 01:12:09;;;;;;;28.30;3.58;;;5.20;99.90;;;3.60;87.79;100311.09;4941335;28;20059;-79
2022/04/10 01:14:37;;;;;;;20.83;3.75;;;5.10;99.90;;;3.56;88.16;100309.44;4928899;28;20126;-79
2022/04/10 01:17:06;;;;;;;42.55;4.25;;;5.20;99.90;;;3.57;88.42;100321.59;4927927;28;20061;-80
2022/04/10 01:19:34;;;;;;;30.33;4.18;;;5.10;99.90;;;3.54;88.47;100321.63;4929667;28;21033;-79
2022/04/10 01:22:05;;;;;;;23.50;3.35;;;5.10;99.90;;;3.56;88.42;100323.31;4943071;28;20071;-80
2022/04/10 01:24:38;;;;;;;32.45;4.15;;;5.10;99.90;;;3.58;88.33;100325.88;4943499;28;20026;-78
2022/04/10 01:27:04;;;;;;;23.55;3.20;;;5.10;99.90;;;3.54;88.53;100325.09;4930237;28;20055;-79
2022/04/10 01:29:31;;;;;;;27.05;3.08;;;5.10;99.90;;;3.54;88.57;100329.44;4927658;28;20073;-78
2022/04/10 01:31:57;;;;;;;38.10;4.35;;;5.10;99.90;;;3.53;88.50;100328.59;4926855;28;20039;-79
2022/04/10 01:34:23;;;;;;;27.10;3.63;;;5.10;99.90;;;3.51;88.78;100337.34;4944283;28;20122;-79
2022/04/10 01:36:49;;;;;;;35.08;4.72;;;5.10;99.90;;;3.52;88.99;100331.22;4917358;28;20732;-79
2022/04/10 01:39:15;;;;;;;27.77;4.03;;;5.10;99.90;;;3.50;88.90;100341.72;4927202;28;20035;-79
2022/04/10 01:41:43;;;;;;;26.08;3.20;;;5.10;99.90;;;3.53;88.78;100351.19;4912840;28;20050;-79
2022/04/10 01:44:10;;;;;;;27.10;3.53;;;5.00;99.90;;;3.54;88.71;100348.53;4944948;28;20046;-77
2022/04/10 01:46:37;;;;;;;31.52;4.32;;;5.10;99.90;;;3.52;88.87;100354.66;4925837;28;20154;-79
2022/04/10 01:49:06;;;;;;;39.55;4.30;;;5.10;99.90;;;3.51;89.14;100353.81;4926531;28;20042;-78
2022/04/10 01:51:33;;;;;;;29.10;3.33;;;5.10;99.90;;;3.51;89.30;100358.19;4926022;28;20130;-80
2022/04/10 01:53:59;;;;;;;21.55;3.50;;;5.10;99.90;;;3.48;89.14;100354.75;4919044;28;20036;-79
2022/04/10 01:56:26;;;;;;;19.20;3.15;;;5.10;99.90;;;3.46;89.47;100371.31;4926353;28;20023;-79
2022/04/10 01:58:52;;;;;;;19.40;2.85;;;5.00;99.90;;;3.49;89.50;100376.41;4945469;28;20479;-78
2022/04/10 02:01:20;;;;;;;20.88;3.50;;;5.00;99.90;;;3.47;89.58;100376.44;4925568;28;20668;-77
2022/04/10 02:03:50;;;;;;;30.27;3.67;;;5.00;99.90;;;3.49;89.96;100379.03;4942989;28;20055;-79
2022/04/10 02:06:17;;;;;;;26.50;3.25;;;5.00;99.90;;;3.49;89.72;100381.63;4926813;28;20035;-79
2022/04/10 02:08:43;;;;;;;27.15;3.40;;;5.00;99.90;;;3.51;89.74;100381.59;4925513;28;20039;-78
2022/04/10 02:11:21;;;;;;;24.83;2.85;;;5.10;99.90;;;3.48;89.64;100372.97;4927577;28;20034;-78
2022/04/10 02:13:48;;;;;;;34.95;4.28;;;5.00;99.90;;;3.45;90.00;100375.63;4957586;28;20035;-79
2022/04/10 02:16:17;;;;;;;26.75;3.90;;;5.00;99.90;;;3.46;89.76;100377.34;4944553;28;20031;-79
2022/04/10 02:18:44;;;;;;;23.02;3.03;;;5.00;99.90;;;3.45;90.12;100386.03;4927758;28;20041;-79
2022/04/10 02:21:11;;;;;;;22.70;3.20;;;5.00;99.90;;;3.48;89.99;100383.38;4919213;28;20043;-80
2022/04/10 02:23:37;;;;;;;25.20;2.88;;;5.00;99.90;;;3.52;89.76;100388.50;4925247;28;20089;-77
2022/04/10 02:26:04;;;;;;;30.48;3.75;;;5.00;99.90;;;3.52;90.19;100385.91;4944163;28;20594;-79
2022/04/10 02:28:31;;;;;;;28.42;3.20;;;5.00;99.90;;;3.49;90.10;100387.69;4928535;28;20031;-79
2022/04/10 02:30:57;;;;;;;20.13;2.95;;;5.00;99.90;;;3.51;89.75;100389.41;4925649;28;20141;-78
2022/04/10 02:33:23;;;;;;;22.55;3.38;;;5.00;99.90;;;3.49;89.84;100384.22;4933117;28;20027;-79
2022/04/10 02:35:49;;;;;;;19.95;2.67;;;5.00;99.90;;;3.48;90.33;100391.19;4925734;28;22236;-79
2022/04/10 02:38:18;;;;;;;26.65;3.65;;;5.00;99.90;;;3.47;90.16;100384.25;4927358;28;20042;-78
2022/04/10 02:40:44;;;;;;;18.55;2.90;;;5.00;99.90;;;3.42;90.03;100390.47;4926654;28;20027;-80
2022/04/10 02:43:10;;;;;;;16.00;2.47;;;5.00;99.90;;;3.43;90.36;100393.03;4926283;28;20042;-78
2022/04/10 02:45:37;;;;;;;29.63;3.95;;;5.00;99.90;;;3.43;90.53;100390.41;4926648;28;20483;-79
2022/04/10 02:48:04;;;;;;;33.00;3.58;;;5.00;99.90;;;3.45;90.46;100400.81;4941490;28;20047;-79
2022/04/10 02:50:30;;;;;;;30.65;3.67;;;5.00;99.90;;;3.38;91.02;100392.28;4956230;28;20066;-78
2022/04/10 02:52:56;;;;;;;35.05;4.13;;;5.00;99.90;;;3.36;90.87;100399.25;4941250;28;20456;-79
2022/04/10 02:55:21;;;;;;;28.92;3.92;;;5.00;99.90;;;3.37;91.10;100401.00;4925724;28;20038;-77
2022/04/10 02:57:47;;;;;;;28.27;3.35;;;5.00;99.90;;;3.37;91.42;100394.91;4929588;28;20086;-79
2022/04/10 03:00:14;;;;;;;30.90;3.75;;;5.00;99.90;;;3.41;91.15;100392.22;4933945;28;20533;-79
2022/04/10 03:02:41;;;;;;;21.85;2.90;;;5.00;99.90;;;3.39;91.20;100399.22;4933779;28;20459;-79
2022/04/10 03:05:08;;;;;;;24.58;3.38;;;4.90;99.90;;;3.39;91.34;100396.63;4924778;28;20045;-79
2022/04/10 03:07:35;;;;;;;23.17;3.47;;;4.90;99.90;;;3.39;91.09;100395.72;4945046;28;20042;-79
2022/04/10 03:10:01;;;;;;;29.58;3.55;;;5.00;99.90;;;3.42;91.15;100396.53;4927142;28;20043;-79
2022/04/10 03:12:27;;;;;;;31.92;3.67;;;4.90;99.90;;;3.45;91.01;100391.25;4925947;28;20347;-78
2022/04/10 03:14:52;;;;;;;33.63;3.53;;;5.00;99.90;;;3.40;91.26;100403.50;4925256;28;20126;-79
2022/04/10 03:17:18;;;;;;;21.45;3.15;;;4.90;99.90;;;3.41;91.30;100405.25;4942328;28;20472;-79
2022/04/10 03:19:44;;;;;;;22.08;3.00;;;4.90;99.90;;;3.40;91.01;100410.47;4924928;28;20031;-78
2022/04/10 03:22:10;;;;;;;19.77;3.00;;;4.90;99.90;;;3.34;91.31;100400.19;4919305;28;20495;-79
2022/04/10 03:24:37;;;;;;;22.35;3.55;;;4.90;99.90;;;3.33;91.55;100406.31;4930520;28;20049;-79
2022/04/10 03:27:03;;;;;;;33.95;3.83;;;4.90;99.90;;;3.31;91.75;100413.28;4963704;28;20090;-78
2022/04/10 03:29:29;;;;;;;31.55;3.80;;;4.90;99.90;;;3.33;91.83;100408.91;4947185;28;20667;-79
2022/04/10 03:31:58;;;;;;;26.40;2.92;;;4.80;99.90;;;3.33;91.82;100411.50;4946178;28;20284;-79
2022/04/10 03:34:24;;;;;;;20.15;2.72;;;4.90;99.90;;;3.34;92.09;100413.22;4961048;28;20530;-78
2022/04/10 03:36:50;;;;;;;20.73;2.85;;;4.90;99.90;;;3.34;91.86;100413.22;4929700;28;20046;-78
2022/04/10 03:39:16;;;;;;;22.65;3.20;;;4.90;99.90;;;3.33;91.90;100422.78;4921312;28;20043;-79
2022/04/10 03:41:42;;;;;;;22.80;3.53;;;4.80;99.90;;;3.31;92.00;100418.50;4944805;28;20093;-78
2022/04/10 03:44:08;;;;;;;25.45;3.20;;;4.80;99.90;;;3.31;92.13;100421.94;4927336;28;20027;-78
2022/04/10 03:46:34;;;;;;;18.13;3.05;;;4.80;99.90;;;3.32;92.15;100431.44;4930250;28;20039;-79
2022/04/10 03:48:59;;;;;;;20.50;2.83;;;4.90;99.90;;;3.34;92.48;100431.41;4930013;28;20027;-77
2022/04/10 03:51:26;;;;;;;29.63;3.35;;;4.90;99.90;;;3.35;92.55;100435.72;4916901;28;20024;-78
2022/04/10 03:53:52;;;;;;;25.55;3.25;;;4.90;99.90;;;3.35;92.51;100434.00;4931290;28;20038;-78
2022/04/10 03:56:18;;;;;;;23.20;3.45;;;4.90;99.90;;;3.33;92.59;100438.38;4911678;28;20054;-78
2022/04/10 03:58:44;;;;;;;29.02;3.13;;;4.90;99.90;;;3.33;92.39;100442.75;4931528;28;20094;-78
2022/04/10 04:01:11;;;;;;;15.20;2.55;;;4.90;99.90;;;3.31;92.69;100449.72;4925719;28;20035;-78
2022/04/10 04:03:38;;;;;;;22.40;3.30;;;4.80;99.90;;;3.35;92.62;100449.63;4947850;28;20097;-80
2022/04/10 04:06:04;;;;;;;24.55;3.15;;;4.90;99.90;;;3.38;92.55;100443.47;4924067;28;20034;-78
2022/04/10 04:08:30;;;;;;;25.60;2.97;;;4.90;99.90;;;3.36;92.40;100448.72;4961991;28;20039;-79
2022/04/10 04:10:56;;;;;;;22.38;2.33;;;4.90;99.90;;;3.34;92.48;100450.50;4945139;28;20038;-78
2022/04/10 04:13:22;;;;;;;23.40;3.35;;;4.80;99.90;;;3.33;92.77;100448.78;4928705;28;20039;-78
2022/04/10 04:15:48;;;;;;;27.92;3.63;;;4.90;99.90;;;3.31;92.72;100450.56;4927104;28;20027;-80
2022/04/10 04:18:14;;;;;;;23.95;3.72;;;4.80;99.90;;;3.31;92.58;100458.38;4943745;28;20558;-80
2022/04/10 04:20:40;;;;;;;23.40;3.08;;;4.80;99.90;;;3.30;92.74;100459.25;4946197;28;20046;-78
2022/04/10 04:23:06;;;;;;;16.90;3.08;;;4.80;99.90;;;3.32;92.60;100462.69;4928990;28;20046;-80
2022/04/10 04:25:32;;;;;;;22.45;2.65;;;4.90;99.90;;;3.34;92.65;100465.25;4928258;28;20051;-80
2022/04/10 04:27:58;;;;;;;23.60;3.20;;;4.90;99.90;;;3.36;92.31;100469.53;4940552;28;20455;-79
2022/04/10 04:30:24;;;;;;;11.52;2.70;;;4.90;99.90;;;3.33;92.73;100469.63;4956958;28;20043;-78
2022/04/10 04:32:51;;;;;;;28.83;3.15;;;4.90;99.90;;;3.35;92.38;100469.56;4926455;28;20134;-79
2022/04/10 04:35:17;;;;;;;22.48;3.17;;;4.90;99.90;;;3.39;92.42;100484.22;4929704;28;20051;-79
2022/04/10 04:37:43;;;;;;;21.05;3.42;;;4.90;99.90;;;3.35;92.49;100482.56;4928040;28;20094;-78
2022/04/10 04:40:11;;;;;;;20.58;2.58;;;4.90;99.90;;;3.38;92.69;100491.19;4920825;28;20078;-79
2022/04/10 04:42:37;;;;;;;28.05;3.40;;;4.90;99.90;;;3.39;92.36;100482.50;4928055;28;20032;-77
2022/04/10 04:45:04;;;;;;;20.20;3.25;;;5.30;99.90;;;3.41;91.94;100490.25;4932223;28;20051;-81
2022/04/10 04:47:30;;;;;;;24.55;3.00;;;4.90;99.90;;;3.41;92.24;100493.75;4944061;28;20499;-80
2022/04/10 04:49:56;;;;;;;23.88;3.60;;;4.90;99.90;;;3.40;92.28;100502.41;4929847;28;20492;-80
2022/04/10 04:52:22;;;;;;;25.58;3.83;;;4.90;99.90;;;3.42;92.33;100497.19;4926604;28;20110;-78
2022/04/10 04:54:48;;;;;;;17.88;2.83;;;5.00;99.90;;;3.45;92.40;100499.72;4926193;28;20122;-78
2022/04/10 04:57:14;;;;;;;25.23;3.70;;;4.90;99.90;;;3.42;92.48;100500.66;4930827;28;20064;-79
2022/04/10 04:59:40;;;;;;;24.52;3.88;;;4.90;99.90;;;3.45;92.31;100508.38;4929029;28;20022;-78
2022/04/10 05:02:06;;;;;;;23.50;2.65;;;4.90;99.90;;;3.50;92.11;100505.72;4943173;28;20031;-79
2022/04/10 05:04:32;;;;;;;22.77;2.78;;;5.00;99.90;;;3.60;91.91;100519.38;4927564;28;20023;-77
2022/04/10 05:06:58;;;;;;;26.27;3.60;;;5.10;99.90;;;3.75;91.14;100518.19;4929419;28;20219;-79
2022/04/10 05:09:24;;;;;;;25.77;3.72;;;5.00;99.90;;;3.59;91.31;100523.72;4945797;28;20037;-78
2022/04/10 05:11:50;;;;;;;15.88;3.00;;;5.00;99.90;;;3.80;90.76;100526.75;4927793;28;20495;-78
2022/04/10 05:14:16;;;;;;;17.88;2.45;;;5.50;99.90;;;6.35;87.14;100532.97;4928388;28;20487;-79
2022/04/10 05:16:42;;;;;;;16.52;3.13;;;6.40;99.90;;;8.10;77.57;100523.22;4943314;28;20027;-78
2022/04/10 05:19:08;;;;;;;22.65;3.85;;;7.10;99.90;;;9.04;70.09;100526.31;4926190;28;20589;-78
2022/04/10 05:21:34;;;;;;;25.45;3.05;;;8.10;99.90;;;11.16;62.33;100528.56;4925714;28;20027;-78
2022/04/10 05:24:01;;;;;;;17.15;2.78;;;9.20;99.90;;;12.91;56.32;100544.41;4959990;28;20050;-79
2022/04/10 05:26:26;;;;;;;18.92;2.92;;;10.10;99.90;;;13.92;52.07;100548.81;4927479;28;20031;-78
2022/04/10 05:28:52;;;;;;;19.58;3.20;;;10.90;99.90;;;14.46;49.75;100560.41;4941917;28;20054;-77
2022/04/10 05:31:18;;;;;;;18.23;2.75;;;11.00;99.90;;;11.59;53.33;100562.34;4941987;28;20035;-78
2022/04/10 05:33:44;;;;;;;22.73;2.78;;;11.10;99.90;;;12.74;52.29;100574.44;4926853;28;20027;-76
2022/04/10 05:36:10;;;;;;;26.92;2.92;;;11.30;99.90;;;14.09;50.57;100595.41;4942055;28;20110;-78
2022/04/10 05:38:36;;;;;;;16.70;2.85;;;11.70;99.90;;;13.73;49.60;100593.25;4943039;28;20423;-74
2022/04/10 05:41:05;;;;;;;18.02;2.92;;;11.90;99.90;;;15.14;47.86;100604.50;4951229;28;20034;-77
2022/04/10 05:43:31;;;;;;;24.15;3.05;;;12.00;99.90;;;14.07;48.75;100615.81;4952941;28;20090;-78
2022/04/10 05:45:57;;;;;;;18.58;3.03;;;11.90;99.90;;;12.60;50.14;100616.69;4925203;28;20143;-78
2022/04/10 05:48:23;;;;;;;16.17;3.25;;;11.40;99.90;;;10.93;54.33;100623.72;4926885;28;20031;-76
2022/04/10 05:50:49;;;;;;;25.10;2.90;;;10.80;99.90;;;9.79;57.85;100623.81;4944641;28;20416;-80
2022/04/10 05:53:16;;;;;;;20.38;3.30;;;10.20;99.90;;;9.83;59.73;100628.03;4941981;28;20063;-76
2022/04/10 05:55:42;;;;;;;19.33;3.00;;;10.30;99.90;;;13.61;53.17;100637.19;4943351;28;20039;-80
2022/04/10 05:58:08;;;;;;;18.75;3.20;;;11.10;99.90;;;16.16;46.23;100646.97;4943409;28;20053;-80
2022/04/10 06:00:34;;;;;;;19.65;3.63;;;11.90;99.90;;;15.28;45.36;100648.66;4907737;28;20030;-75
2022/04/10 06:03:04;;;;;;;17.60;2.95;;;12.30;99.90;;;15.98;45.29;100661.53;4925217;28;20027;-77
2022/04/10 06:05:30;;;;;;;23.75;3.00;;;12.60;99.90;;;15.47;45.26;100666.84;4956222;28;20122;-75
2022/04/10 06:07:57;;;;;;;13.95;2.67;;;12.70;99.90;;;15.21;45.60;100672.09;4924905;28;20039;-76
2022/04/10 06:10:23;;;;;;;17.40;3.45;;;12.50;99.90;;;13.52;48.28;100669.50;4949970;28;20035;-76
2022/04/10 06:12:49;;;;;;;21.88;3.28;;;12.20;99.90;;;12.99;49.52;100670.81;4941962;28;20081;-76
2022/04/10 06:15:21;;;;;;;21.35;3.17;;;12.00;99.90;;;13.12;49.58;100679.75;4940968;28;20039;-77
2022/04/10 06:17:47;;;;;;;22.95;3.55;;;11.90;99.90;;;13.03;50.22;100680.28;4927505;28;20047;-78
2022/04/10 06:20:14;;;;;;;19.13;3.10;;;11.70;99.90;;;12.47;50.43;100683.38;4932542;28;20477;-79
2022/04/10 06:22:40;;;;;;;20.63;3.42;;;11.40;99.90;;;10.97;53.88;100680.59;4926209;28;21611;-74
2022/04/10 06:25:06;;;;;;;15.70;2.83;;;11.00;99.90;;;10.16;56.85;100678.22;4907695;28;20559;-75
2022/04/10 06:27:32;;;;;;;24.15;3.38;;;10.60;99.90;;;10.51;57.46;100688.94;4924286;28;20118;-75
2022/04/10 06:30:04;;;;;;;14.38;3.03;;;10.40;99.90;;;11.32;56.33;100693.81;4942299;28;20094;-80
2022/04/10 06:32:31;;;;;;;22.13;3.03;;;10.80;99.90;;;12.84;53.02;100694.53;4938788;28;20043;-79
2022/04/10 06:34:57;;;;;;;17.48;3.13;;;11.40;99.90;;;13.93;49.62;100693.47;4933661;28;20026;-77
2022/04/10 06:37:23;;;;;;;25.33;3.42;;;11.80;99.90;;;12.23;50.50;100695.28;4924879;28;20082;-76
2022/04/10 06:39:49;;;;;;;17.58;2.75;;;11.70;99.90;;;10.69;54.99;100689.88;4953668;28;20023;-75
2022/04/10 06:42:15;;;;;;;21.10;3.35;;;11.10;99.90;;;9.61;58.04;100696.44;4925321;28;20023;-75
2022/04/10 06:44:42;;;;;;;22.52;3.25;;;10.60;99.90;;;9.19;60.21;100713.97;4923860;28;20038;-76
2022/04/10 06:47:08;;;;;;;19.05;3.15;;;10.30;99.90;;;9.15;60.54;100709.75;4941978;28;20036;-77
2022/04/10 06:49:34;;;;;;;18.10;2.60;;;10.20;99.90;;;10.10;59.31;100709.22;4923085;28;20027;-77
2022/04/10 06:52:00;;;;;;;20.10;2.90;;;10.30;99.90;;;10.69;56.87;100713.56;4942729;28;20534;-79
2022/04/10 06:54:26;;;;;;;15.15;2.55;;;10.80;99.90;;;13.98;51.77;100719.66;4914474;28;20036;-76
2022/04/10 06:56:52;;;;;;;17.52;2.65;;;11.70;99.90;;;15.78;47.38;100724.84;4917828;28;20035;-77
2022/04/10 06:59:18;;;;;;;18.60;3.42;;;13.00;99.90;;;16.99;43.52;100739.38;4958311;28;20431;-75
2022/04/10 07:01:44;;;;;;;15.80;2.65;;;13.90;99.90;;;16.94;44.21;100746.00;4943216;28;20034;-77
2022/04/10 07:04:10;;;;;;;13.50;2.70;;;14.40;99.90;;;15.31;43.87;100736.84;4920926;28;20404;-80
2022/04/10 07:06:36;;;;;;;19.30;3.03;;;14.60;99.90;;;15.84;45.30;100757.25;4930266;28;20039;-80
2022/04/10 07:09:02;;;;;;;17.60;3.00;;;15.00;99.90;;;18.12;41.34;100760.22;4946968;28;20511;-79
2022/04/10 07:11:31;;;;;;;17.30;3.25;;;16.10;99.90;;;19.45;37.99;100773.53;4924910;28;20431;-78
2022/04/10 07:13:57;;;;;;;21.92;3.28;;;17.10;98.80;;;20.23;37.33;100783.94;4934823;28;20109;-76
2022/04/10 07:16:23;;;;;;;18.42;2.75;;;17.70;97.00;;;20.43;36.96;100788.41;4939093;28;20475;-76
2022/04/10 07:18:50;;;;;;;25.77;3.38;;;18.30;95.90;;;20.55;36.24;100789.16;4927573;28;20380;-75
2022/04/10 07:23:41;;;;;;;12.52;2.35;;;18.50;93.90;;;20.02;35.96;100798.16;4944155;28;20045;-77
2022/04/10 07:24:02;;;;;;;18.23;3.00;;;19.00;93.70;;;20.69;35.72;100815.56;4929230;28;20032;-78
2022/04/10 07:26:29;;;;;;;19.65;3.40;;;19.10;92.90;;;18.20;38.23;100814.63;4919189;28;23310;-76
2022/04/10 07:28:55;;;;;;;21.52;3.90;;;18.10;92.90;;;16.48;41.16;100802.41;4943753;28;20108;-76
2022/04/10 07:31:21;;;;;;;17.17;2.85;;;17.20;94.00;;;15.54;42.98;100801.66;4929983;28;20035;-77
2022/04/10 07:33:47;;;;;;;17.98;2.67;;;16.20;94.60;;;14.13;45.43;100808.72;4925901;28;20038;-77
2022/04/10 07:36:13;;;;;;;14.30;3.00;;;15.10;95.80;;;14.09;47.08;100806.38;4929811;28;20033;-78
2022/04/10 07:38:39;;;;;;;14.60;2.83;;;14.30;97.10;;;12.17;49.71;100795.94;4943066;28;20035;-78
2022/04/10 07:41:05;;;;;;;19.27;3.20;;;13.40;98.20;;;11.21;51.52;100807.69;4928269;28;20085;-78
2022/04/10 07:43:31;;;;;;;16.60;2.80;;;13.20;99.90;;;13.03;50.34;100817.72;4927540;28;20496;-77
2022/04/10 07:48:42;;;;;;;14.40;2.80;;;13.50;99.60;;;12.42;49.55;100820.13;4934873;28;20681;-75
2022/04/10 07:51:09;;;;;;;18.98;2.90;;;13.50;99.50;;;13.88;48.47;100817.28;4940849;28;20484;-76
2022/04/10 07:53:34;;;;;;;19.33;3.10;;;14.10;99.20;;;14.85;45.89;100826.47;4925090;28;20027;-78
2022/04/10 07:56:01;;;;;;;13.45;2.83;;;14.80;99.00;;;15.30;44.51;100825.34;4920628;28;20031;-76
2022/04/10 07:58:26;;;;;;;19.25;3.40;;;15.40;98.10;;;15.53;44.51;100838.91;4928068;28;20034;-76
2022/04/10 08:00:52;;;;;;;14.35;2.65;;;15.20;96.70;;;13.72;45.89;100838.50;4947045;28;20062;-76
2022/04/10 08:03:18;;;;;;;19.67;3.22;;;14.60;96.80;;;12.42;48.78;100832.44;4939089;28;20029;-75
2022/04/10 08:05:44;;;;;;;17.55;2.90;;;13.70;98.10;;;11.39;51.17;100829.69;4941562;28;20066;-75
2022/04/10 08:08:11;;;;;;;19.15;3.25;;;12.80;99.00;;;10.60;53.09;100825.41;4924738;28;20058;-75
2022/04/10 08:10:39;;;;;;;19.50;3.30;;;12.00;99.90;;;9.75;55.13;100843.13;4945570;28;20562;-76
2022/04/10 08:13:05;;;;;;;20.17;3.40;;;11.30;99.90;;;9.17;57.06;100834.00;4924021;28;20062;-76
2022/04/10 08:15:32;;;;;;;20.52;3.45;;;10.70;99.90;;;8.76;59.11;100833.81;4944648;28;20031;-76
2022/04/10 08:17:58;;;;;;;21.10;3.05;;;10.30;99.90;;;8.52;59.58;100850.50;4926415;28;20074;-77
2022/04/10 08:20:24;;;;;;;16.88;2.38;;;10.00;99.90;;;8.60;60.30;100843.19;4928236;28;20038;-80
2022/04/10 08:22:53;;;;;;;14.05;2.70;;;10.70;99.90;;;10.22;57.98;100850.78;4925468;28;20031;-77
2022/04/10 08:25:23;;;;;;;12.57;2.08;;;10.80;99.90;;;9.93;56.35;100849.38;4928047;28;20042;-76
2022/04/10 08:27:51;;;;;;;15.90;2.83;;;10.60;99.90;;;9.41;56.43;100855.00;4922277;28;20102;-78
2022/04/10 08:30:17;;;;;;;20.92;3.10;;;10.70;99.90;;;10.33;57.31;100856.47;4919832;28;20030;-77
2022/04/10 08:32:44;;;;;;;10.00;2.13;;;11.60;99.90;;;12.36;53.30;100853.91;4928564;28;20144;-78
2022/04/10 08:35:15;;;;;;;15.20;2.53;;;12.40;99.90;;;12.04;51.76;100853.75;4984267;23;20049;-78
2022/04/10 08:37:41;;;;;;;19.83;3.28;;;12.50;99.90;;;11.04;52.64;100866.47;4952739;28;20022;-77
2022/04/10 08:40:08;;;;;;;19.88;2.85;;;12.00;99.90;;;10.17;54.53;100868.53;4954402;28;20040;-77
2022/04/10 08:42:34;;;;;;;17.60;3.10;;;11.50;99.90;;;10.05;56.51;100881.28;4936983;28;20034;-77
2022/04/10 08:45:08;;;;;;;18.65;2.80;;;11.20;99.90;;;9.65;57.42;100877.69;4966710;28;20429;-77
2022/04/10 08:47:37;;;;;;;19.15;2.97;;;10.80;99.90;;;9.04;58.51;100878.28;4984665;28;20109;-77
2022/04/10 08:50:03;;;;;;;15.77;2.83;;;10.80;99.90;;;10.24;58.01;100865.59;4967796;28;20018;-77
2022/04/10 08:52:32;;;;;;;21.88;2.92;;;11.30;99.90;;;11.37;55.13;100865.81;4945662;28;20045;-77
2022/04/10 08:54:58;;;;;;;20.65;2.35;;;12.20;99.90;;;12.34;52.76;100867.19;4940188;28;20045;-77
2022/04/10 08:57:24;;;;;;;14.38;2.40;;;12.90;99.90;;;13.00;51.31;100873.38;4973798;28;20093;-77
2022/04/10 08:59:50;;;;;;;15.77;2.72;;;13.60;99.90;;;13.71;49.90;100870.34;4984074;28;20022;-77
2022/04/10 09:02:16;;;;;;;17.35;3.05;;;14.20;99.90;;;14.21;48.52;100877.13;4963492;28;20482;-77
2022/04/10 09:04:42;;;;;;;11.23;2.25;;;14.60;99.40;;;14.60;46.58;100875.72;4948616;28;20049;-77
2022/04/10 09:07:13;;;;;;;11.70;2.30;;;14.80;99.90;;;14.35;47.54;100881.59;4952542;28;20103;-77
2022/04/10 09:09:56;;;;;;;13.07;2.55;;;14.60;98.00;;;13.11;46.76;100884.25;4971555;28;20029;-77
2022/04/10 09:12:23;;;;;;;10.48;2.28;;;13.80;97.10;;;12.08;48.40;100881.72;4968645;28;20030;-76
2022/04/10 09:14:50;;;;;;;14.23;2.38;;;13.30;98.60;;;11.75;50.03;100873.63;4936119;28;20436;-76
2022/04/10 09:17:23;;;;;;;13.82;2.05;;;12.90;99.20;;;11.48;50.90;100871.44;4974119;28;20558;-77
2022/04/10 09:19:52;;;;;;;18.13;2.88;;;12.60;99.90;;;11.20;52.28;100885.06;4979824;28;20804;-77
2022/04/10 09:22:38;;;;;;;7.70;1.33;;;12.10;99.90;;;9.85;53.00;100889.16;4995480;28;20092;-75
2022/04/10 09:25:17;;;;;;;15.52;1.95;;;10.70;99.90;;;8.26;58.46;100915.19;4939748;28;20057;-78
2022/04/10 09:27:53;;;;;;;10.77;1.67;;;9.80;99.90;;;7.32;62.81;100918.19;4985828;28;20029;-78
2022/04/10 09:30:20;;;;;;;10.15;1.33;;;8.90;99.90;;;6.54;64.90;100912.53;4947785;28;20032;-80
2022/04/10 09:32:51;;;;;;;14.27;2.20;;;8.20;99.90;;;5.98;66.06;100912.25;4950406;28;20038;-78
2022/04/10 09:35:19;;;;;;;9.18;2.13;;;8.00;99.90;;;6.43;68.95;100919.81;4940535;28;20526;-77
2022/04/10 09:37:55;;;;;;;9.00;2.40;;;8.10;99.90;;;6.96;70.38;100900.03;4960719;28;20555;-78
2022/04/10 09:40:33;;;;;;;13.00;2.40;;;8.40;99.90;;;7.52;70.93;100888.75;4932673;28;20110;-77
2022/04/10 09:43:09;;;;;;;11.18;1.90;;;8.70;99.90;;;7.97;69.12;100864.59;4950963;28;20030;-79
2022/04/10 09:45:44;;;;;;;11.43;2.15;;;9.10;99.90;;;8.43;66.75;100877.06;4943039;28;20041;-78
2022/04/10 09:48:32;;;;;;;15.52;2.50;;;9.40;99.90;;;8.60;66.21;100870.28;4980152;28;20050;-77
2022/04/10 09:51:01;;;;;;;13.70;2.15;;;9.60;99.90;;;8.72;63.45;100866.34;4958068;28;20040;-77
2022/04/10 09:53:28;;;;;;;12.68;2.65;;;9.80;99.90;;;9.05;61.66;100868.66;4978756;28;20018;-77
2022/04/10 09:56:04;;;;;;;11.32;1.65;;;10.10;99.90;;;9.52;60.94;100858.03;4951861;28;20073;-77
2022/04/10 09:58:32;;;;;;;16.33;2.58;;;10.50;99.90;;;9.88;59.97;100854.84;4888712;28;20066;-76
2022/04/10 10:00:59;;;;;;;9.30;1.50;;;10.80;99.90;;;10.20;58.70;100856.09;4932400;28;20848;-76
2022/04/10 10:03:30;;;;;;;10.27;1.67;;;10.90;99.90;;;10.02;56.62;100859.50;4952317;28;20117;-76
2022/04/10 10:05:59;;;;;;;8.93;1.65;;;10.90;99.90;;;9.88;55.75;100849.56;4954322;28;20046;-76
2022/04/10 10:08:27;;;;;;;7.13;1.35;;;10.80;99.90;;;9.30;54.49;100849.31;4973161;28;20045;-76
2022/04/10 10:10:57;;;;;;;12.18;1.70;;;10.10;99.90;;;8.34;56.87;100858.06;5008545;28;20122;-76
2022/04/10 10:13:28;;;;;;;13.82;1.58;;;9.90;99.90;;;8.53;59.53;100883.69;4969145;28;20042;-77
2022/04/10 10:15:57;;;;;;;11.85;1.30;;;9.90;99.90;;;8.73;56.97;100878.59;4954180;28;20360;-76
2022/04/10 10:18:27;;;;;;;7.40;1.00;;;10.00;99.90;;;8.92;56.31;100864.75;4963524;28;20033;-77